createdAt,value
2022-11-14T00:00:30.096Z,101469.09
2022-11-14T00:03:01.112Z,101465.69
2022-11-14T00:05:28.048Z,101468.13
2022-11-14T00:07:54.531Z,101467.91
2022-11-14T00:10:21.365Z,101469.97
2022-11-14T00:12:47.850Z,101459.28
2022-11-14T00:15:14.828Z,101457.91
2022-11-14T00:17:41.329Z,101468.47
2022-11-14T00:20:09.581Z,101454.81
2022-11-14T00:22:35.921Z,101450.34
2022-11-14T00:25:02.372Z,101455.94
2022-11-14T00:27:28.814Z,101453.91
2022-11-14T00:29:55.209Z,101473.63
2022-11-14T00:32:22.547Z,101467.69
2022-11-14T00:34:49.691Z,101459.94
2022-11-14T00:37:16.033Z,101461.09
2022-11-14T00:39:42.504Z,101465.44
2022-11-14T00:42:08.937Z,101456.94
2022-11-14T00:44:35.387Z,101432.44
2022-11-14T00:47:01.756Z,101448.28
2022-11-14T00:49:28.136Z,101444.19
2022-11-14T00:51:54.550Z,101450.34
2022-11-14T00:54:20.943Z,101443.50
2022-11-14T00:56:47.347Z,101435.53
2022-11-14T00:59:13.765Z,101433.88
2022-11-14T01:01:40.247Z,101430.06
2022-11-14T01:04:06.732Z,101437.97
2022-11-14T01:06:33.112Z,101434.50
2022-11-14T01:08:59.527Z,101428.34
2022-11-14T01:11:25.965Z,101423.94
2022-11-14T01:13:52.311Z,101419.41
2022-11-14T01:16:20.006Z,101419.19
2022-11-14T01:18:46.630Z,101411.34
2022-11-14T01:21:14.383Z,101403.25
2022-11-14T01:23:41.003Z,101409.00
2022-11-14T01:26:10.610Z,101417.97
2022-11-14T01:28:37.974Z,101411.03
2022-11-14T01:31:29.079Z,101411.72
2022-11-14T01:33:55.592Z,101406.88
2022-11-14T01:36:22.070Z,101394.34
2022-11-14T01:38:52.721Z,101397.84
2022-11-14T01:41:19.655Z,101396.00
2022-11-14T01:43:46.066Z,101398.16
2022-11-14T01:46:22.756Z,101393.75
2022-11-14T01:48:54.656Z,101387.75
2022-11-14T01:51:43.334Z,101383.34
2022-11-14T01:54:15.582Z,101391.41
2022-11-14T01:56:49.712Z,101383.47
2022-11-14T01:59:21.914Z,101386.06
2022-11-14T02:01:51.917Z,101378.41
2022-11-14T02:04:23.138Z,101379.13
2022-11-14T02:06:51.705Z,101367.88
2022-11-14T02:09:18.300Z,101371.31
2022-11-14T02:11:46.097Z,101367.59
2022-11-14T02:14:12.925Z,101356.75
2022-11-14T02:16:41.753Z,101346.16
2022-11-14T02:19:09.031Z,101344.19
2022-11-14T02:21:35.716Z,101345.59
2022-11-14T02:24:02.100Z,101344.53
2022-11-14T02:26:33.018Z,101339.50
2022-11-14T02:29:02.073Z,101335.66
2022-11-14T02:31:28.434Z,101333.88
2022-11-14T02:33:54.805Z,101314.53
2022-11-14T02:36:21.505Z,101329.56
2022-11-14T02:38:48.213Z,101325.78
2022-11-14T02:41:14.553Z,101322.75
2022-11-14T02:43:40.944Z,101300.16
2022-11-14T02:46:07.389Z,101309.94
2022-11-14T02:48:33.888Z,101305.06
2022-11-14T02:51:00.244Z,101308.84
2022-11-14T02:53:26.684Z,101304.78
2022-11-14T02:55:53.027Z,101310.91
2022-11-14T02:58:19.380Z,101317.34
2022-11-14T03:01:13.596Z,101313.75
2022-11-14T03:03:32.282Z,101312.34
2022-11-14T03:06:00.410Z,101311.56
2022-11-14T03:08:27.288Z,101301.97
2022-11-14T03:10:54.247Z,101300.06
2022-11-14T03:13:20.609Z,101303.53
2022-11-14T03:15:47.087Z,101295.34
2022-11-14T03:18:13.765Z,101289.91
2022-11-14T03:20:40.263Z,101294.34
2022-11-14T03:23:06.714Z,101283.91
2022-11-14T03:25:33.071Z,101300.66
2022-11-14T03:27:59.613Z,101301.44
2022-11-14T03:30:25.964Z,101313.03
2022-11-14T03:32:52.356Z,101301.34
2022-11-14T03:35:18.788Z,101296.31
2022-11-14T03:37:45.243Z,101290.72
2022-11-14T03:40:11.804Z,101292.97
2022-11-14T03:42:38.257Z,101295.22
2022-11-14T03:45:05.190Z,101292.41
2022-11-14T03:47:31.693Z,101289.09
2022-11-14T03:49:58.077Z,101295.34
2022-11-14T03:52:26.085Z,101296.34
2022-11-14T03:54:52.510Z,101294.78
2022-11-14T03:57:18.946Z,101294.78
2022-11-14T03:59:45.310Z,101295.09
2022-11-14T04:02:12.064Z,101289.28
2022-11-14T04:04:38.453Z,101291.50
2022-11-14T04:07:04.976Z,101286.34
2022-11-14T04:09:32.447Z,101283.97
2022-11-14T04:11:58.772Z,101285.66
2022-11-14T04:14:26.221Z,101277.28
2022-11-14T04:16:52.616Z,101275.22
2022-11-14T04:19:18.976Z,101262.13
2022-11-14T04:21:45.326Z,101261.28
2022-11-14T04:24:11.746Z,101264.09
2022-11-14T04:26:38.123Z,101260.03
2022-11-14T04:29:04.474Z,101243.50
2022-11-14T04:31:30.837Z,101244.88
2022-11-14T04:33:57.296Z,101243.06
2022-11-14T04:36:23.673Z,101245.03
2022-11-14T04:38:50.135Z,101245.69
2022-11-14T04:41:16.484Z,101246.84
2022-11-14T04:43:46.730Z,101240.00
2022-11-14T04:46:15.989Z,101238.63
2022-11-14T04:48:42.358Z,101233.75
2022-11-14T04:51:09.158Z,101225.81
2022-11-14T04:53:35.657Z,101227.91
2022-11-14T04:56:02.256Z,101229.84
2022-11-14T04:58:28.940Z,101223.06
2022-11-14T05:00:57.885Z,101217.63
2022-11-14T05:03:25.153Z,101217.34
2022-11-14T05:05:51.816Z,101219.00
2022-11-14T05:08:18.172Z,101208.72
2022-11-14T05:10:45.735Z,101181.31
2022-11-14T05:13:12.997Z,101206.91
2022-11-14T05:15:39.432Z,101196.31
2022-11-14T05:18:05.859Z,101201.19
2022-11-14T05:20:32.272Z,101190.06
2022-11-14T05:22:58.783Z,101182.41
2022-11-14T05:25:25.292Z,101186.28
2022-11-14T05:27:51.693Z,101180.19
2022-11-14T05:30:18.165Z,101174.50
2022-11-14T05:32:44.839Z,101186.31
2022-11-14T05:35:11.468Z,101189.94
2022-11-14T05:37:38.277Z,101180.50
2022-11-14T05:40:05.796Z,101188.00
2022-11-14T05:42:32.601Z,101185.06
2022-11-14T05:44:58.983Z,101184.09
2022-11-14T05:47:25.353Z,101177.84
2022-11-14T05:49:51.714Z,101184.91
2022-11-14T05:52:18.101Z,101177.28
2022-11-14T05:54:44.453Z,101178.97
2022-11-14T05:57:10.826Z,101180.06
2022-11-14T05:59:37.173Z,101182.97
2022-11-14T06:02:03.633Z,101171.47
2022-11-14T06:04:30.123Z,101169.78
2022-11-14T06:06:56.540Z,101160.72
2022-11-14T06:09:23.057Z,101168.69
2022-11-14T06:11:49.413Z,101174.34
2022-11-14T06:14:15.884Z,101168.53
2022-11-14T06:16:42.271Z,101171.56
2022-11-14T06:19:08.614Z,101178.25
2022-11-14T06:21:35.031Z,101183.69
2022-11-14T06:24:01.567Z,101173.09
2022-11-14T06:26:32.709Z,101169.22
2022-11-14T06:29:00.662Z,101171.72
2022-11-14T06:31:27.656Z,101177.72
2022-11-14T06:33:54.500Z,101170.31
2022-11-14T06:36:20.875Z,101170.75
2022-11-14T06:38:47.440Z,101171.59
2022-11-14T06:41:19.441Z,101171.16
2022-11-14T06:43:47.950Z,101176.44
2022-11-14T06:46:17.893Z,101176.97
2022-11-14T06:48:46.961Z,101176.41
2022-11-14T06:51:15.476Z,101182.53
2022-11-14T06:53:42.617Z,101182.66
2022-11-14T06:56:11.634Z,101179.19
2022-11-14T06:58:40.673Z,101168.91
2022-11-14T07:01:25.917Z,101171.41
2022-11-14T07:03:52.296Z,101175.84
2022-11-14T07:06:24.097Z,101175.31
2022-11-14T07:08:52.294Z,101179.59
2022-11-14T07:11:26.624Z,101182.53
2022-11-14T07:13:55.195Z,101178.47
2022-11-14T07:16:25.464Z,101176.53
2022-11-14T07:18:52.364Z,101174.03
2022-11-14T07:21:18.707Z,101179.31
2022-11-14T07:23:45.093Z,101176.09
2022-11-14T07:26:11.927Z,101170.69
2022-11-14T07:28:41.405Z,101177.38
2022-11-14T07:31:12.431Z,101184.03
2022-11-14T07:33:39.349Z,101170.03
2022-11-14T07:36:06.407Z,101175.84
2022-11-14T07:38:34.034Z,101172.09
2022-11-14T07:41:03.083Z,101171.69
2022-11-14T07:43:29.776Z,101171.69
2022-11-14T07:46:08.228Z,101158.47
2022-11-14T07:48:34.605Z,101171.59
2022-11-14T07:51:02.862Z,101171.44
2022-11-14T07:53:29.794Z,101160.59
2022-11-14T07:55:57.343Z,101170.75
2022-11-14T07:58:23.860Z,101169.75
2022-11-14T08:00:51.320Z,101158.09
2022-11-14T08:03:17.740Z,101157.09
2022-11-14T08:05:44.234Z,101155.03
2022-11-14T08:08:10.689Z,101151.28
2022-11-14T08:10:37.157Z,101155.19
2022-11-14T08:13:34.060Z,101156.25
2022-11-14T08:15:53.063Z,101146.50
2022-11-14T08:18:19.793Z,101141.63
2022-11-14T08:20:46.304Z,101136.66
2022-11-14T08:23:15.403Z,101132.16
2022-11-14T08:25:42.105Z,101135.91
2022-11-14T08:28:08.922Z,101134.66
2022-11-14T08:30:35.533Z,101123.97
2022-11-14T08:33:03.686Z,101136.22
2022-11-14T08:35:30.160Z,101152.88
2022-11-14T08:37:56.865Z,101128.78
2022-11-14T08:40:25.774Z,101128.94
2022-11-14T08:42:52.288Z,101129.34
2022-11-14T08:45:18.890Z,101122.91
2022-11-14T08:47:51.291Z,101112.56
2022-11-14T08:50:17.800Z,101084.63
2022-11-14T08:52:49.590Z,101104.72
2022-11-14T08:55:15.956Z,101099.66
2022-11-14T08:57:46.607Z,101086.97
2022-11-14T09:00:16.217Z,101089.94
2022-11-14T09:02:42.588Z,101083.38
2022-11-14T09:05:09.674Z,101086.41
2022-11-14T09:07:36.218Z,101088.59
2022-11-14T09:10:02.912Z,101086.84
2022-11-14T09:12:30.494Z,101080.59
2022-11-14T09:14:56.910Z,101089.19
2022-11-14T09:17:23.316Z,101082.63
2022-11-14T09:19:50.055Z,101088.47
2022-11-14T09:22:16.596Z,101096.84
2022-11-14T09:24:43.192Z,101083.63
2022-11-14T09:27:09.595Z,101079.84
2022-11-14T09:29:35.963Z,101076.56
2022-11-14T09:32:02.346Z,101072.94
2022-11-14T09:34:28.696Z,101070.81
2022-11-14T09:36:55.066Z,101077.25
2022-11-14T09:39:21.584Z,101070.84
2022-11-14T09:42:15.830Z,101063.56
2022-11-14T09:44:58.717Z,101054.50
2022-11-14T09:47:38.279Z,101052.00
2022-11-14T09:50:21.768Z,101037.63
2022-11-14T09:53:07.705Z,101024.72
2022-11-14T09:55:37.213Z,101022.41
2022-11-14T09:58:05.117Z,101013.19
2022-11-14T10:00:50.294Z,101021.19
2022-11-14T10:03:42.692Z,101018.94
2022-11-14T10:06:22.866Z,101018.13
2022-11-14T10:09:11.109Z,101019.31
2022-11-14T10:11:55.828Z,101013.38
2022-11-14T10:14:49.428Z,100999.19
2022-11-14T10:17:40.706Z,100995.50
2022-11-14T10:20:31.359Z,101000.81
2022-11-14T10:23:10.876Z,100994.84
2022-11-14T10:26:08.277Z,100985.28
2022-11-14T10:29:17.807Z,100984.47
2022-11-14T10:32:01.898Z,100989.97
2022-11-14T10:34:36.262Z,100981.63
2022-11-14T10:37:24.934Z,100982.44
2022-11-14T10:39:54.195Z,100981.03
2022-11-14T10:42:34.554Z,100972.19
2022-11-14T10:45:11.847Z,100978.19
2022-11-14T10:47:44.699Z,100967.13
2022-11-14T10:50:25.089Z,100965.41
2022-11-14T10:52:57.544Z,100971.56
2022-11-14T10:55:49.707Z,100972.75
2022-11-14T10:58:13.600Z,100972.00
2022-11-14T11:00:40.194Z,100946.53
2022-11-14T11:03:07.594Z,100961.75
2022-11-14T11:05:45.840Z,100960.94
2022-11-14T11:08:46.822Z,100955.81
2022-11-14T11:11:32.527Z,100955.50
2022-11-14T11:14:01.391Z,100941.41
2022-11-14T11:16:28.962Z,100930.22
2022-11-14T11:19:14.645Z,100939.03
2022-11-14T11:21:50.274Z,100946.81
2022-11-14T11:24:37.003Z,100932.25
2022-11-14T11:27:18.625Z,100920.56
2022-11-14T11:29:45.018Z,100920.75
2022-11-14T11:32:24.887Z,100924.00
2022-11-14T11:34:51.529Z,100921.75
2022-11-14T11:37:54.962Z,100916.03
2022-11-14T11:40:25.698Z,100917.88
2022-11-14T11:43:37.361Z,100916.22
2022-11-14T11:45:53.078Z,100913.97
2022-11-14T11:48:22.318Z,100900.16
2022-11-14T11:50:49.941Z,100898.09
2022-11-14T11:53:24.332Z,100898.31
2022-11-14T11:55:55.057Z,100907.97
2022-11-14T11:58:32.853Z,100912.28
2022-11-14T12:00:59.286Z,100917.47
2022-11-14T12:03:26.864Z,100928.50
2022-11-14T12:06:15.192Z,100929.94
2022-11-14T12:08:53.625Z,100921.72
2022-11-14T12:11:24.020Z,100925.06
2022-11-14T12:14:25.529Z,100930.31
2022-11-14T12:17:07.141Z,100922.19
2022-11-14T12:19:45.899Z,100921.53
2022-11-14T12:22:31.195Z,100907.00
2022-11-14T12:25:35.276Z,100907.00
2022-11-14T12:28:26.590Z,100915.81
2022-11-14T12:30:58.966Z,100906.69
2022-11-14T12:33:34.666Z,100903.47
2022-11-14T12:36:04.440Z,100899.84
2022-11-14T12:38:42.170Z,100900.88
2022-11-14T12:41:09.605Z,100903.09
2022-11-14T12:43:37.763Z,100890.78
2022-11-14T12:46:11.536Z,100896.13
2022-11-14T12:48:45.800Z,100893.38
2022-11-14T12:51:27.498Z,100900.47
2022-11-14T12:53:55.344Z,100899.66
2022-11-14T12:56:30.725Z,100892.84
2022-11-14T12:59:26.609Z,100885.22
2022-11-14T13:01:54.026Z,100881.09
2022-11-14T13:04:26.518Z,100884.59
2022-11-14T13:07:14.298Z,100876.00
2022-11-14T13:09:53.652Z,100871.50
2022-11-14T13:12:47.932Z,100862.06
2022-11-14T13:15:50.599Z,100843.53
2022-11-14T13:18:43.945Z,100839.81
2022-11-14T13:21:45.338Z,100851.00
2022-11-14T13:24:17.071Z,100853.88
2022-11-14T13:26:52.482Z,100847.53
2022-11-14T13:29:40.720Z,100852.41
2022-11-14T13:32:11.377Z,100849.94
2022-11-14T13:34:48.998Z,100857.28
2022-11-14T13:37:34.181Z,100866.75
2022-11-14T13:40:13.008Z,100874.28
2022-11-14T13:42:45.225Z,100868.78
2022-11-14T13:45:36.056Z,100871.88
2022-11-14T13:48:11.478Z,100864.16
2022-11-14T13:50:40.464Z,100859.41
2022-11-14T13:53:20.704Z,100855.09
2022-11-14T13:55:55.310Z,100850.13
2022-11-14T13:58:48.931Z,100854.91
2022-11-14T14:01:27.997Z,100847.88
2022-11-14T14:04:13.208Z,100851.97
2022-11-14T14:07:24.062Z,100841.47
2022-11-14T14:10:26.997Z,100831.81
2022-11-14T14:12:53.300Z,100833.47
2022-11-14T14:15:19.661Z,100827.88
2022-11-14T14:18:08.315Z,100827.19
2022-11-14T14:21:05.923Z,100818.94
2022-11-14T14:23:39.055Z,100826.56
2022-11-14T14:26:23.163Z,100833.09
2022-11-14T14:29:12.925Z,100822.16
2022-11-14T14:31:41.496Z,100827.50
2022-11-14T14:34:31.059Z,100814.69
2022-11-14T14:36:58.524Z,100818.84
2022-11-14T14:39:27.014Z,100815.44
2022-11-14T14:41:58.395Z,100822.78
2022-11-14T14:44:36.871Z,100839.81
2022-11-14T14:47:34.563Z,100822.53
2022-11-14T14:50:03.720Z,100825.09
2022-11-14T14:52:36.864Z,100822.63
2022-11-14T14:55:08.578Z,100813.59
2022-11-14T14:57:35.111Z,100816.19
2022-11-14T15:00:22.201Z,100815.91
2022-11-14T15:02:50.089Z,100815.44
2022-11-14T15:05:28.305Z,100819.63
2022-11-14T15:08:00.587Z,100803.03
2022-11-14T15:10:30.063Z,100789.53
2022-11-14T15:12:58.146Z,100799.34
2022-11-14T15:15:26.478Z,100808.59
2022-11-14T15:17:54.954Z,100807.66
2022-11-14T15:20:29.629Z,100817.56
2022-11-14T15:23:15.351Z,100818.13
2022-11-14T15:25:42.471Z,100820.50
2022-11-14T15:28:21.847Z,100815.63
2022-11-14T15:31:00.039Z,100823.03
2022-11-14T15:33:31.982Z,100825.84
2022-11-14T15:36:13.487Z,100832.56
2022-11-14T15:38:44.632Z,100819.97
2022-11-14T15:41:25.281Z,100822.84
2022-11-14T15:43:55.172Z,100822.56
2022-11-14T15:46:33.608Z,100815.63
2022-11-14T15:49:01.606Z,100809.22
2022-11-14T15:51:39.272Z,100821.53
2022-11-14T15:54:06.823Z,100823.25
2022-11-14T15:56:33.310Z,100822.94
2022-11-14T15:58:59.698Z,100822.63
2022-11-14T16:01:26.518Z,100828.00
2022-11-14T16:03:52.968Z,100824.34
2022-11-14T16:06:19.372Z,100824.22
2022-11-14T16:08:46.145Z,100817.75
2022-11-14T16:11:13.413Z,100813.63
2022-11-14T16:13:39.755Z,100822.28
2022-11-14T16:16:06.262Z,100808.47
2022-11-14T16:18:32.617Z,100823.25
2022-11-14T16:20:59.636Z,100817.44
2022-11-14T16:23:26.002Z,100815.59
2022-11-14T16:25:52.555Z,100815.28
2022-11-14T16:28:18.897Z,100810.81
2022-11-14T16:30:45.428Z,100802.84
2022-11-14T16:33:11.840Z,100802.53
2022-11-14T16:35:38.373Z,100807.00
2022-11-14T16:38:04.797Z,100798.06
2022-11-14T16:40:31.208Z,100798.22
2022-11-14T16:42:59.445Z,100803.19
2022-11-14T16:45:27.624Z,100798.38
2022-11-14T16:47:54.073Z,100790.44
2022-11-14T16:50:20.432Z,100794.41
2022-11-14T16:52:46.955Z,100798.91
2022-11-14T16:55:13.439Z,100795.25
2022-11-14T16:57:40.674Z,100805.19
2022-11-14T17:00:10.769Z,100792.94
2022-11-14T17:02:37.236Z,100796.91
2022-11-14T17:05:03.816Z,100792.09
2022-11-14T17:07:32.685Z,100793.56
2022-11-14T17:10:02.518Z,100800.22
2022-11-14T17:12:29.015Z,100788.28
2022-11-14T17:14:55.346Z,100785.94
2022-11-14T17:17:22.776Z,100788.91
2022-11-14T17:19:49.696Z,100792.06
2022-11-14T17:22:19.737Z,100787.94
2022-11-14T17:24:46.143Z,100791.22
2022-11-14T17:27:15.474Z,100795.72
2022-11-14T17:29:41.911Z,100800.69
2022-11-14T17:32:08.254Z,100795.34
2022-11-14T17:34:34.624Z,100798.31
2022-11-14T17:37:00.970Z,100795.50
2022-11-14T17:39:27.386Z,100798.81
2022-11-14T17:41:53.765Z,100791.38
2022-11-14T17:44:20.109Z,100789.38
2022-11-14T17:46:47.631Z,100790.19
2022-11-14T17:49:14.014Z,100792.56
2022-11-14T17:51:40.417Z,100787.88
2022-11-14T17:54:06.928Z,100795.38
2022-11-14T17:56:33.336Z,100789.59
2022-11-14T17:58:59.676Z,100786.59
2022-11-14T18:01:26.391Z,100784.44
2022-11-14T18:03:52.899Z,100784.94
2022-11-14T18:06:20.883Z,100770.50
2022-11-14T18:08:48.121Z,100780.59
2022-11-14T18:11:16.951Z,100780.44
2022-11-14T18:13:43.734Z,100793.53
2022-11-14T18:16:14.436Z,100786.75
2022-11-14T18:18:41.296Z,100785.75
2022-11-14T18:21:13.663Z,100779.78
2022-11-14T18:23:40.131Z,100786.91
2022-11-14T18:26:14.428Z,100782.59
2022-11-14T18:28:41.845Z,100788.72
2022-11-14T18:31:13.465Z,100790.72
2022-11-14T18:33:41.795Z,100777.94
2022-11-14T18:36:11.952Z,100771.97
2022-11-14T18:38:38.438Z,100759.50
2022-11-14T18:41:08.955Z,100777.25
2022-11-14T18:43:35.947Z,100760.88
2022-11-14T18:46:10.242Z,100758.38
2022-11-14T18:48:38.535Z,100754.72
2022-11-14T18:51:08.189Z,100762.84
2022-11-14T18:53:36.062Z,100753.41
2022-11-14T18:56:13.600Z,100751.88
2022-11-14T18:58:41.340Z,100735.16
2022-11-14T19:01:16.584Z,100750.91
2022-11-14T19:03:42.972Z,100750.41
2022-11-14T19:06:12.030Z,100757.69
2022-11-14T19:08:39.552Z,100763.81
2022-11-14T19:11:08.871Z,100772.06
2022-11-14T19:13:35.233Z,100769.75
2022-11-14T19:16:05.983Z,100773.22
2022-11-14T19:18:32.881Z,100773.22
2022-11-14T19:21:01.346Z,100770.91
2022-11-14T19:23:28.618Z,100772.22
2022-11-14T19:25:59.967Z,100775.38
2022-11-14T19:28:27.324Z,100765.47
2022-11-14T19:30:53.752Z,100769.25
2022-11-14T19:33:20.104Z,100776.09
2022-11-14T19:35:46.589Z,100778.63
2022-11-14T19:38:13.561Z,100773.81
2022-11-14T19:40:39.920Z,100764.19
2022-11-14T19:43:07.359Z,100773.50
2022-11-14T19:45:35.060Z,100777.47
2022-11-14T19:48:01.966Z,100770.69
2022-11-14T19:50:28.538Z,100760.75
2022-11-14T19:52:54.955Z,100772.34
2022-11-14T19:55:21.376Z,100766.53
2022-11-14T19:57:47.874Z,100765.88
2022-11-14T20:00:14.961Z,100764.53
2022-11-14T20:02:41.430Z,100774.50
2022-11-14T20:05:08.465Z,100770.69
2022-11-14T20:07:37.603Z,100768.88
2022-11-14T20:10:04.965Z,100764.69
2022-11-14T20:12:34.499Z,100765.03
2022-11-14T20:15:02.439Z,100764.19
2022-11-14T20:17:28.972Z,100762.66
2022-11-14T20:19:55.406Z,100759.03
2022-11-14T20:22:22.107Z,100763.34
2022-11-14T20:24:48.453Z,100759.56
2022-11-14T20:27:14.914Z,100759.91
2022-11-14T20:29:41.296Z,100754.25
2022-11-14T20:32:11.613Z,100748.63
2022-11-14T20:34:40.923Z,100739.50
2022-11-14T20:37:11.714Z,100745.97
2022-11-14T20:39:38.538Z,100740.69
2022-11-14T20:42:05.044Z,100752.44
2022-11-14T20:44:31.428Z,100747.16
2022-11-14T20:46:57.790Z,100742.81
2022-11-14T20:49:24.232Z,100742.00
2022-11-14T20:51:50.642Z,100740.16
2022-11-14T20:54:17.205Z,100733.72
2022-11-14T20:56:43.544Z,100732.72
2022-11-14T20:59:09.973Z,100733.88
2022-11-14T21:01:42.124Z,100733.72
2022-11-14T21:04:10.271Z,100722.28
2022-11-14T21:06:36.728Z,100739.03
2022-11-14T21:09:03.218Z,100741.69
2022-11-14T21:11:29.653Z,100739.69
2022-11-14T21:13:56.047Z,100726.44
2022-11-14T21:16:24.871Z,100736.72
2022-11-14T21:18:55.364Z,100738.19
2022-11-14T21:21:27.419Z,100725.94
2022-11-14T21:23:54.699Z,100733.22
2022-11-14T21:26:24.160Z,100731.06
2022-11-14T21:28:54.501Z,100742.00
2022-11-14T21:31:32.289Z,100734.41
2022-11-14T21:34:01.054Z,100732.88
2022-11-14T21:36:45.837Z,100734.22
2022-11-14T21:39:14.823Z,100735.19
2022-11-14T21:41:42.802Z,100739.38
2022-11-14T21:44:11.888Z,100736.53
2022-11-14T21:46:38.698Z,100735.53
2022-11-14T21:49:05.085Z,100737.22
2022-11-14T21:51:32.534Z,100731.56
2022-11-14T21:53:58.964Z,100725.13
2022-11-14T21:56:27.893Z,100723.28
2022-11-14T21:59:12.631Z,100720.97
2022-11-14T22:01:59.976Z,100719.00
2022-11-14T22:04:26.967Z,100727.91
2022-11-14T22:06:54.135Z,100722.47
2022-11-14T22:09:20.882Z,100724.28
2022-11-14T22:11:47.362Z,100723.78
2022-11-14T22:14:13.862Z,100718.47
2022-11-14T22:16:40.399Z,100718.16
2022-11-14T22:19:06.866Z,100713.84
2022-11-14T22:21:33.332Z,100690.81
2022-11-14T22:24:00.072Z,100713.34
2022-11-14T22:26:26.576Z,100692.94
2022-11-14T22:28:53.089Z,100706.69
2022-11-14T22:31:24.522Z,100700.59
2022-11-14T22:33:54.188Z,100702.06
2022-11-14T22:36:25.971Z,100689.16
2022-11-14T22:38:54.135Z,100691.13
2022-11-14T22:41:26.478Z,100692.63
2022-11-14T22:43:57.671Z,100697.94
2022-11-14T22:46:24.725Z,100688.16
2022-11-14T22:48:51.329Z,100689.66
2022-11-14T22:51:20.881Z,100676.22
2022-11-14T22:53:52.272Z,100693.94
2022-11-14T22:56:21.091Z,100681.88
2022-11-14T22:58:47.525Z,100682.34
2022-11-14T23:01:15.895Z,100681.34
2022-11-14T23:03:42.456Z,100681.53
2022-11-14T23:06:14.333Z,100678.03
2022-11-14T23:08:41.020Z,100686.81
2022-11-14T23:11:11.041Z,100680.69
2022-11-14T23:13:42.188Z,100674.56
2022-11-14T23:16:13.703Z,100681.53
2022-11-14T23:18:40.615Z,100672.91
2022-11-14T23:21:28.658Z,100677.22
2022-11-14T23:23:59.441Z,100673.06
2022-11-14T23:26:27.285Z,100668.25
2022-11-14T23:28:54.593Z,100664.13
2022-11-14T23:31:21.555Z,100667.25
2022-11-14T23:33:50.195Z,100658.50
2022-11-14T23:36:17.261Z,100661.94
2022-11-14T23:38:43.706Z,100661.94
2022-11-14T23:41:17.200Z,100658.50
2022-11-14T23:43:43.709Z,100650.88
2022-11-14T23:46:10.187Z,100656.50
2022-11-14T23:48:36.572Z,100655.66
2022-11-14T23:51:02.916Z,100640.09
2022-11-14T23:53:30.066Z,100647.53
2022-11-14T23:55:59.142Z,100643.25
2022-11-14T23:58:27.023Z,100634.63
